sensor_id;sensor_type;location;lat;lon;timestamp;pressure;altitude;pressure_sealevel;temperature;humidity
47753;BME280;2038;51.728;6.674;2023-11-19T00:00:47;75992.44;;;-141.64;100.00
47753;BME280;2038;51.728;6.674;2023-11-19T00:03:14;75980.75;;;-141.64;100.00
47753;BME280;2038;51.728;6.674;2023-11-19T00:05:40;75982.69;;;-141.64;100.00
47753;BME280;2038;51.728;6.674;2023-11-19T00:08:07;75970.97;;;-141.64;100.00
47753;BME280;2038;51.728;6.674;2023-11-19T00:10:34;75978.78;;;-141.64;100.00
47753;BME280;2038;51.728;6.674;2023-11-19T00:13:00;75969.03;;;-141.64;100.00
47753;BME280;2038;51.728;6.674;2023-11-19T00:15:28;75967.06;;;-141.64;100.00
47753;BME280;2038;51.728;6.674;2023-11-19T00:17:54;75961.22;;;-141.64;100.00
47753;BME280;2038;51.728;6.674;2023-11-19T00:20:20;75947.56;;;-141.64;100.00
47753;BME280;2038;51.728;6.674;2023-11-19T00:22:49;75951.47;;;-141.64;100.00
47753;BME280;2038;51.728;6.674;2023-11-19T00:25:19;75935.84;;;-141.64;100.00
47753;BME280;2038;51.728;6.674;2023-11-19T00:27:47;75931.94;;;-141.64;100.00
47753;BME280;2038;51.728;6.674;2023-11-19T00:30:14;75922.16;;;-141.64;100.00
47753;BME280;2038;51.728;6.674;2023-11-19T00:32:41;75918.28;;;-141.64;100.00
47753;BME280;2038;51.728;6.674;2023-11-19T00:35:08;75902.66;;;-141.64;100.00
47753;BME280;2038;51.728;6.674;2023-11-19T00:37:36;75892.91;;;-141.64;100.00
47753;BME280;2038;51.728;6.674;2023-11-19T00:40:02;75877.28;;;-141.64;100.00
47753;BME280;2038;51.728;6.674;2023-11-19T00:42:31;75873.38;;;-141.64;100.00
47753;BME280;2038;51.728;6.674;2023-11-19T00:44:57;75867.50;;;-141.64;100.00
47753;BME280;2038;51.728;6.674;2023-11-19T00:47:24;75861.66;;;-141.64;100.00
47753;BME280;2038;51.728;6.674;2023-11-19T00:49:50;75853.84;;;-141.64;100.00
47753;BME280;2038;51.728;6.674;2023-11-19T00:52:17;75844.09;;;-141.64;100.00
47753;BME280;2038;51.728;6.674;2023-11-19T00:54:44;75803.09;;;-141.64;100.00
47753;BME280;2038;51.728;6.674;2023-11-19T00:57:11;75803.09;;;-141.64;100.00
47753;BME280;2038;51.728;6.674;2023-11-19T00:59:37;75795.28;;;-141.64;100.00
47753;BME280;2038;51.728;6.674;2023-11-19T01:02:04;75820.66;;;-141.64;100.00
47753;BME280;2038;51.728;6.674;2023-11-19T01:04:35;75810.91;;;-141.64;100.00
47753;BME280;2038;51.728;6.674;2023-11-19T01:07:03;75795.28;;;-141.64;100.00
47753;BME280;2038;51.728;6.674;2023-11-19T01:09:31;75820.66;;;-141.64;100.00
47753;BME280;2038;51.728;6.674;2023-11-19T01:11:58;75816.75;;;-141.64;100.00
47753;BME280;2038;51.728;6.674;2023-11-19T01:14:26;75791.38;;;-141.64;100.00
47753;BME280;2038;51.728;6.674;2023-11-19T01:16:53;75805.03;;;-141.64;100.00
47753;BME280;2038;51.728;6.674;2023-11-19T01:19:23;75801.16;;;-141.64;100.00
47753;BME280;2038;51.728;6.674;2023-11-19T01:21:50;75793.34;;;-141.64;100.00
47753;BME280;2038;51.728;6.674;2023-11-19T01:24:17;75801.16;;;-141.64;100.00
47753;BME280;2038;51.728;6.674;2023-11-19T01:26:44;75807.00;;;-141.64;100.00
47753;BME280;2038;51.728;6.674;2023-11-19T01:29:14;75814.81;;;-141.64;100.00
47753;BME280;2038;51.728;6.674;2023-11-19T01:31:46;75818.72;;;-141.64;100.00
47753;BME280;2038;51.728;6.674;2023-11-19T01:34:13;75807.00;;;-141.64;100.00
47753;BME280;2038;51.728;6.674;2023-11-19T01:36:39;75797.25;;;-141.64;100.00
47753;BME280;2038;51.728;6.674;2023-11-19T01:39:05;75797.25;;;-141.64;100.00
47753;BME280;2038;51.728;6.674;2023-11-19T01:41:38;75783.56;;;-141.64;100.00
47753;BME280;2038;51.728;6.674;2023-11-19T01:44:06;75777.72;;;-141.64;100.00
47753;BME280;2038;51.728;6.674;2023-11-19T01:46:33;75773.81;;;-141.64;100.00
47753;BME280;2038;51.728;6.674;2023-11-19T01:49:01;75785.53;;;-141.64;100.00
47753;BME280;2038;51.728;6.674;2023-11-19T01:51:28;75783.56;;;-141.64;100.00
47753;BME280;2038;51.728;6.674;2023-11-19T01:53:55;75775.78;;;-141.64;100.00
47753;BME280;2038;51.728;6.674;2023-11-19T01:56:24;75795.28;;;-141.64;100.00
47753;BME280;2038;51.728;6.674;2023-11-19T01:58:52;75766.00;;;-141.64;100.00
47753;BME280;2038;51.728;6.674;2023-11-19T02:01:22;75779.66;;;-141.64;100.00
47753;BME280;2038;51.728;6.674;2023-11-19T02:03:49;75771.88;;;-141.64;100.00
47753;BME280;2038;51.728;6.674;2023-11-19T02:06:15;75760.16;;;-141.64;100.00
47753;BME280;2038;51.728;6.674;2023-11-19T02:08:42;75748.44;;;-141.64;100.00
47753;BME280;2038;51.728;6.674;2023-11-19T02:11:09;75758.19;;;-141.64;100.00
47753;BME280;2038;51.728;6.674;2023-11-19T02:13:38;75760.16;;;-141.64;100.00
47753;BME280;2038;51.728;6.674;2023-11-19T02:16:04;75750.38;;;-141.64;100.00
47753;BME280;2038;51.728;6.674;2023-11-19T02:18:32;75750.38;;;-141.64;100.00
47753;BME280;2038;51.728;6.674;2023-11-19T02:20:59;75748.44;;;-141.64;100.00
47753;BME280;2038;51.728;6.674;2023-11-19T02:23:27;75750.38;;;-141.64;100.00
47753;BME280;2038;51.728;6.674;2023-11-19T02:26:25;75728.91;;;-141.64;100.00
47753;BME280;2038;51.728;6.674;2023-11-19T02:28:59;75736.72;;;-141.64;100.00
47753;BME280;2038;51.728;6.674;2023-11-19T02:31:25;75744.53;;;-141.64;100.00
47753;BME280;2038;51.728;6.674;2023-11-19T02:33:53;75732.81;;;-141.64;100.00
47753;BME280;2038;51.728;6.674;2023-11-19T02:36:19;75752.34;;;-141.64;100.00
47753;BME280;2038;51.728;6.674;2023-11-19T02:38:47;75767.97;;;-141.64;100.00
47753;BME280;2038;51.728;6.674;2023-11-19T02:41:14;75748.44;;;-141.64;100.00
47753;BME280;2038;51.728;6.674;2023-11-19T02:43:40;75748.44;;;-141.64;100.00
47753;BME280;2038;51.728;6.674;2023-11-19T02:46:07;75734.78;;;-141.64;100.00
47753;BME280;2038;51.728;6.674;2023-11-19T02:48:37;75725.00;;;-141.64;100.00
47753;BME280;2038;51.728;6.674;2023-11-19T02:51:04;75730.88;;;-141.64;100.00
47753;BME280;2038;51.728;6.674;2023-11-19T02:53:35;75740.63;;;-141.64;100.00
47753;BME280;2038;51.728;6.674;2023-11-19T02:56:03;75728.91;;;-141.64;100.00
47753;BME280;2038;51.728;6.674;2023-11-19T02:58:51;75740.63;;;-141.64;100.00
47753;BME280;2038;51.728;6.674;2023-11-19T03:01:24;75746.50;;;-141.64;100.00
47753;BME280;2038;51.728;6.674;2023-11-19T03:04:00;75736.72;;;-141.64;100.00
47753;BME280;2038;51.728;6.674;2023-11-19T03:06:28;75734.78;;;-141.64;100.00
47753;BME280;2038;51.728;6.674;2023-11-19T03:08:55;75740.63;;;-141.64;100.00
47753;BME280;2038;51.728;6.674;2023-11-19T03:11:21;75748.44;;;-141.64;100.00
47753;BME280;2038;51.728;6.674;2023-11-19T03:13:47;75728.91;;;-141.64;100.00
47753;BME280;2038;51.728;6.674;2023-11-19T03:16:14;75723.06;;;-141.64;100.00
47753;BME280;2038;51.728;6.674;2023-11-19T03:18:40;75734.78;;;-141.64;100.00
47753;BME280;2038;51.728;6.674;2023-11-19T03:21:07;75715.25;;;-141.64;100.00
47753;BME280;2038;51.728;6.674;2023-11-19T03:23:37;75742.59;;;-141.64;99.79
47753;BME280;2038;51.728;6.674;2023-11-19T03:26:05;75754.28;;;-141.64;99.94
47753;BME280;2038;51.728;6.674;2023-11-19T03:28:32;75758.19;;;-141.64;99.60
47753;BME280;2038;51.728;6.674;2023-11-19T03:30:58;75781.63;;;-141.64;99.74
47753;BME280;2038;51.728;6.674;2023-11-19T03:33:25;75791.38;;;-141.64;99.89
47753;BME280;2038;51.728;6.674;2023-11-19T03:35:54;75785.53;;;-141.64;100.00
47753;BME280;2038;51.728;6.674;2023-11-19T03:38:23;75775.78;;;-141.64;100.00
47753;BME280;2038;51.728;6.674;2023-11-19T03:40:49;75789.44;;;-141.64;100.00
47753;BME280;2038;51.728;6.674;2023-11-19T03:43:15;75787.47;;;-141.64;100.00
47753;BME280;2038;51.728;6.674;2023-11-19T03:45:41;75785.53;;;-141.64;99.66
47753;BME280;2038;51.728;6.674;2023-11-19T03:48:08;75787.47;;;-141.64;99.49
47753;BME280;2038;51.728;6.674;2023-11-19T03:50:34;75795.28;;;-141.64;99.31
47753;BME280;2038;51.728;6.674;2023-11-19T03:53:00;75801.16;;;-141.64;98.66
47753;BME280;2038;51.728;6.674;2023-11-19T03:55:28;75805.03;;;-141.64;97.74
47753;BME280;2038;51.728;6.674;2023-11-19T03:57:55;75814.81;;;-141.64;97.19
47753;BME280;2038;51.728;6.674;2023-11-19T04:00:21;75807.00;;;-141.64;96.93
47753;BME280;2038;51.728;6.674;2023-11-19T04:02:47;75808.94;;;-141.64;96.87
47753;BME280;2038;51.728;6.674;2023-11-19T04:05:14;75816.75;;;-141.64;96.65
47753;BME280;2038;51.728;6.674;2023-11-19T04:07:40;75808.94;;;-141.64;96.55
47753;BME280;2038;51.728;6.674;2023-11-19T04:10:07;75818.72;;;-141.64;96.05
47753;BME280;2038;51.728;6.674;2023-11-19T04:12:33;75822.63;;;-141.64;95.91
47753;BME280;2038;51.728;6.674;2023-11-19T04:14:59;75822.63;;;-141.64;95.78
47753;BME280;2038;51.728;6.674;2023-11-19T04:17:25;75826.53;;;-141.64;95.62
47753;BME280;2038;51.728;6.674;2023-11-19T04:19:52;75834.31;;;-141.64;95.22
47753;BME280;2038;51.728;6.674;2023-11-19T04:22:18;75830.44;;;-141.64;95.00
47753;BME280;2038;51.728;6.674;2023-11-19T04:24:44;75838.22;;;-141.64;95.03
47753;BME280;2038;51.728;6.674;2023-11-19T04:27:11;75840.19;;;-141.64;95.15
47753;BME280;2038;51.728;6.674;2023-11-19T04:29:37;75834.31;;;-141.64;95.32
47753;BME280;2038;51.728;6.674;2023-11-19T04:32:04;75834.31;;;-141.64;95.49
47753;BME280;2038;51.728;6.674;2023-11-19T04:34:31;75851.91;;;-141.64;95.96
47753;BME280;2038;51.728;6.674;2023-11-19T04:36:57;75857.75;;;-141.64;96.21
47753;BME280;2038;51.728;6.674;2023-11-19T04:39:26;75855.81;;;-141.64;96.13
47753;BME280;2038;51.728;6.674;2023-11-19T04:41:53;75853.84;;;-141.64;95.80
47753;BME280;2038;51.728;6.674;2023-11-19T04:44:19;75863.59;;;-141.64;95.89
47753;BME280;2038;51.728;6.674;2023-11-19T04:46:46;75863.59;;;-141.64;95.72
47753;BME280;2038;51.728;6.674;2023-11-19T04:49:13;75875.31;;;-141.64;95.54
47753;BME280;2038;51.728;6.674;2023-11-19T04:51:44;75877.28;;;-141.64;95.42
47753;BME280;2038;51.728;6.674;2023-11-19T04:54:13;75900.69;;;-141.64;95.35
47753;BME280;2038;51.728;6.674;2023-11-19T04:56:40;75894.84;;;-141.64;95.69
47753;BME280;2038;51.728;6.674;2023-11-19T04:59:06;75887.03;;;-141.64;95.15
47753;BME280;2038;51.728;6.674;2023-11-19T05:01:35;75892.91;;;-141.64;95.13
47753;BME280;2038;51.728;6.674;2023-11-19T05:04:01;75904.59;;;-141.64;95.10
47753;BME280;2038;51.728;6.674;2023-11-19T05:06:31;75896.78;;;-141.64;95.15
47753;BME280;2038;51.728;6.674;2023-11-19T05:08:59;75916.31;;;-141.64;95.15
47753;BME280;2038;51.728;6.674;2023-11-19T05:11:35;75918.28;;;-141.64;95.39
47753;BME280;2038;51.728;6.674;2023-11-19T05:14:03;75912.41;;;-141.64;95.06
47753;BME280;2038;51.728;6.674;2023-11-19T05:16:32;75920.22;;;-141.64;94.97
47753;BME280;2038;51.728;6.674;2023-11-19T05:18:58;75922.16;;;-141.64;95.21
47753;BME280;2038;51.728;6.674;2023-11-19T05:21:24;75881.19;;;-141.64;94.38
47753;BME280;2038;51.728;6.674;2023-11-19T05:23:50;75926.06;;;-141.64;94.54
47753;BME280;2038;51.728;6.674;2023-11-19T05:26:21;75920.22;;;-141.64;94.83
47753;BME280;2038;51.728;6.674;2023-11-19T05:28:49;75910.47;;;-141.64;94.03
47753;BME280;2038;51.728;6.674;2023-11-19T05:31:17;75892.91;;;-141.64;93.32
47753;BME280;2038;51.728;6.674;2023-11-19T05:33:44;75935.84;;;-141.64;93.98
47753;BME280;2038;51.728;6.674;2023-11-19T05:36:11;75947.56;;;-141.64;94.34
47753;BME280;2038;51.728;6.674;2023-11-19T05:38:38;75937.78;;;-141.64;94.05
47753;BME280;2038;51.728;6.674;2023-11-19T05:41:05;75929.97;;;-141.64;93.82
47753;BME280;2038;51.728;6.674;2023-11-19T05:43:32;75943.66;;;-141.64;94.01
47753;BME280;2038;51.728;6.674;2023-11-19T05:45:58;75939.75;;;-141.64;93.59
47753;BME280;2038;51.728;6.674;2023-11-19T05:48:26;75931.94;;;-141.64;93.65
47753;BME280;2038;51.728;6.674;2023-11-19T05:50:53;75943.66;;;-141.64;93.50
47753;BME280;2038;51.728;6.674;2023-11-19T05:53:20;75941.69;;;-141.64;93.74
47753;BME280;2038;51.728;6.674;2023-11-19T05:55:47;75951.47;;;-141.64;93.62
47753;BME280;2038;51.728;6.674;2023-11-19T05:58:27;75941.69;;;-141.64;93.38
47753;BME280;2038;51.728;6.674;2023-11-19T06:00:57;75953.41;;;-141.64;93.33
47753;BME280;2038;51.728;6.674;2023-11-19T06:03:26;75959.25;;;-141.64;93.50
47753;BME280;2038;51.728;6.674;2023-11-19T06:05:53;75970.97;;;-141.64;93.46
47753;BME280;2038;51.728;6.674;2023-11-19T06:08:22;75974.88;;;-141.64;93.44
47753;BME280;2038;51.728;6.674;2023-11-19T06:10:48;75970.97;;;-141.64;93.79
47753;BME280;2038;51.728;6.674;2023-11-19T06:13:16;75969.03;;;-141.64;93.56
47753;BME280;2038;51.728;6.674;2023-11-19T06:15:43;75965.13;;;-141.64;93.82
47753;BME280;2038;51.728;6.674;2023-11-19T06:18:09;75969.03;;;-141.64;93.50
47753;BME280;2038;51.728;6.674;2023-11-19T06:20:38;75970.97;;;-141.64;93.46
47753;BME280;2038;51.728;6.674;2023-11-19T06:23:04;75976.84;;;-141.64;93.79
47753;BME280;2038;51.728;6.674;2023-11-19T06:25:30;75982.69;;;-141.64;93.69
47753;BME280;2038;51.728;6.674;2023-11-19T06:27:57;75978.78;;;-141.64;93.38
47753;BME280;2038;51.728;6.674;2023-11-19T06:30:23;75978.78;;;-141.64;93.80
47753;BME280;2038;51.728;6.674;2023-11-19T06:32:49;75970.97;;;-141.64;93.70
47753;BME280;2038;51.728;6.674;2023-11-19T06:35:15;75967.06;;;-141.64;93.59
47753;BME280;2038;51.728;6.674;2023-11-19T06:37:42;75969.03;;;-141.64;93.22
47753;BME280;2038;51.728;6.674;2023-11-19T06:40:09;75963.16;;;-141.64;92.63
47753;BME280;2038;51.728;6.674;2023-11-19T06:42:36;75970.97;;;-141.64;92.38
47753;BME280;2038;51.728;6.674;2023-11-19T06:45:03;75969.03;;;-141.64;91.92
47753;BME280;2038;51.728;6.674;2023-11-19T06:47:29;75986.59;;;-141.64;91.82
47753;BME280;2038;51.728;6.674;2023-11-19T06:49:56;75998.31;;;-141.64;91.70
47753;BME280;2038;51.728;6.674;2023-11-19T06:52:22;75992.44;;;-141.64;91.78
47753;BME280;2038;51.728;6.674;2023-11-19T06:54:49;75996.34;;;-141.64;91.65
47753;BME280;2038;51.728;6.674;2023-11-19T06:57:15;76013.94;;;-141.64;92.04
47753;BME280;2038;51.728;6.674;2023-11-19T06:59:42;76004.16;;;-141.64;91.73
47753;BME280;2038;51.728;6.674;2023-11-19T07:02:09;76004.16;;;-141.64;91.40
47753;BME280;2038;51.728;6.674;2023-11-19T07:04:35;76019.78;;;-141.64;91.30
47753;BME280;2038;51.728;6.674;2023-11-19T07:07:01;76039.31;;;-141.64;92.33
47753;BME280;2038;51.728;6.674;2023-11-19T07:09:28;76025.63;;;-141.64;92.27
47753;BME280;2038;51.728;6.674;2023-11-19T07:11:54;76021.72;;;-141.64;91.85
47753;BME280;2038;51.728;6.674;2023-11-19T07:14:20;76031.50;;;-141.64;91.75
47753;BME280;2038;51.728;6.674;2023-11-19T07:16:47;76035.41;;;-141.64;91.88
47753;BME280;2038;51.728;6.674;2023-11-19T07:19:13;76031.50;;;-141.64;91.99
47753;BME280;2038;51.728;6.674;2023-11-19T07:21:43;76033.44;;;-141.64;92.24
47753;BME280;2038;51.728;6.674;2023-11-19T07:24:12;76025.63;;;-141.64;92.33
47753;BME280;2038;51.728;6.674;2023-11-19T07:26:47;76023.69;;;-141.64;91.79
47753;BME280;2038;51.728;6.674;2023-11-19T07:29:14;76015.88;;;-141.64;91.72
47753;BME280;2038;51.728;6.674;2023-11-19T07:31:43;76019.78;;;-141.64;91.56
47753;BME280;2038;51.728;6.674;2023-11-19T07:34:10;76029.53;;;-141.64;92.30
47753;BME280;2038;51.728;6.674;2023-11-19T07:36:37;76023.69;;;-141.64;92.34
47753;BME280;2038;51.728;6.674;2023-11-19T07:39:04;76015.88;;;-141.64;91.71
47753;BME280;2038;51.728;6.674;2023-11-19T07:41:31;76025.63;;;-141.64;91.59
47753;BME280;2038;51.728;6.674;2023-11-19T07:43:58;76033.44;;;-141.64;91.61
47753;BME280;2038;51.728;6.674;2023-11-19T07:46:24;76023.69;;;-141.64;91.81
47753;BME280;2038;51.728;6.674;2023-11-19T07:48:51;76029.53;;;-141.64;91.56
47753;BME280;2038;51.728;6.674;2023-11-19T07:51:18;76037.34;;;-141.64;91.31
47753;BME280;2038;51.728;6.674;2023-11-19T07:53:44;76045.16;;;-141.64;91.47
47753;BME280;2038;51.728;6.674;2023-11-19T07:56:10;76047.09;;;-141.64;91.14
47753;BME280;2038;51.728;6.674;2023-11-19T07:58:37;76045.16;;;-141.64;91.15
47753;BME280;2038;51.728;6.674;2023-11-19T08:01:03;76056.88;;;-141.64;91.38
47753;BME280;2038;51.728;6.674;2023-11-19T08:03:29;76062.72;;;-141.64;91.30
47753;BME280;2038;51.728;6.674;2023-11-19T08:05:56;76062.72;;;-141.64;91.41
47753;BME280;2038;51.728;6.674;2023-11-19T08:08:25;76058.81;;;-141.64;91.45
47753;BME280;2038;51.728;6.674;2023-11-19T08:10:51;76060.78;;;-141.64;91.40
47753;BME280;2038;51.728;6.674;2023-11-19T08:13:19;76058.81;;;-141.64;91.14
47753;BME280;2038;51.728;6.674;2023-11-19T08:15:46;76051.00;;;-141.64;90.86
47753;BME280;2038;51.728;6.674;2023-11-19T08:18:12;76049.06;;;-141.64;90.74
47753;BME280;2038;51.728;6.674;2023-11-19T08:20:39;76033.44;;;-141.64;90.94
47753;BME280;2038;51.728;6.674;2023-11-19T08:23:05;76037.34;;;-141.64;90.75
47753;BME280;2038;51.728;6.674;2023-11-19T08:25:31;76027.59;;;-141.64;90.42
47753;BME280;2038;51.728;6.674;2023-11-19T08:27:59;76033.44;;;-141.64;90.25
47753;BME280;2038;51.728;6.674;2023-11-19T08:30:26;76025.63;;;-141.64;89.71
47753;BME280;2038;51.728;6.674;2023-11-19T08:32:53;76021.72;;;-141.64;89.84
47753;BME280;2038;51.728;6.674;2023-11-19T08:35:19;76008.06;;;-141.64;89.78
47753;BME280;2038;51.728;6.674;2023-11-19T08:37:45;76004.16;;;-141.64;89.35
47753;BME280;2038;51.728;6.674;2023-11-19T08:40:12;75996.34;;;-141.64;89.22
47753;BME280;2038;51.728;6.674;2023-11-19T08:42:40;75994.41;;;-141.64;89.12
47753;BME280;2038;51.728;6.674;2023-11-19T08:45:07;76019.78;;;-141.64;89.12
47753;BME280;2038;51.728;6.674;2023-11-19T08:47:38;76006.13;;;-141.64;89.34
47753;BME280;2038;51.728;6.674;2023-11-19T08:50:06;76010.03;;;-141.64;89.14
47753;BME280;2038;51.728;6.674;2023-11-19T08:52:33;76004.16;;;-141.64;88.79
47753;BME280;2038;51.728;6.674;2023-11-19T08:54:59;75998.31;;;-141.64;88.30
47753;BME280;2038;51.728;6.674;2023-11-19T08:57:25;75990.50;;;-141.64;88.56
47753;BME280;2038;51.728;6.674;2023-11-19T08:59:51;75990.50;;;-141.64;88.56
47753;BME280;2038;51.728;6.674;2023-11-19T09:02:17;76000.25;;;-141.64;88.11
47753;BME280;2038;51.728;6.674;2023-11-19T09:04:44;75994.41;;;-141.64;87.86
47753;BME280;2038;51.728;6.674;2023-11-19T09:07:10;76000.25;;;-141.64;88.23
47753;BME280;2038;51.728;6.674;2023-11-19T09:09:36;75992.44;;;-141.64;88.24
47753;BME280;2038;51.728;6.674;2023-11-19T09:12:03;75980.75;;;-141.64;88.28
47753;BME280;2038;51.728;6.674;2023-11-19T09:14:30;75986.59;;;-141.64;88.07
47753;BME280;2038;51.728;6.674;2023-11-19T09:16:57;75984.63;;;-141.64;88.26
47753;BME280;2038;51.728;6.674;2023-11-19T09:19:24;75972.94;;;-141.64;88.40
47753;BME280;2038;51.728;6.674;2023-11-19T09:21:52;75970.97;;;-141.64;87.81
47753;BME280;2038;51.728;6.674;2023-11-19T09:24:19;75951.47;;;-141.64;88.03
47753;BME280;2038;51.728;6.674;2023-11-19T09:26:45;75961.22;;;-141.64;87.41
47753;BME280;2038;51.728;6.674;2023-11-19T09:29:11;75951.47;;;-141.64;87.25
47753;BME280;2038;51.728;6.674;2023-11-19T09:31:40;75951.47;;;-141.64;86.80
47753;BME280;2038;51.728;6.674;2023-11-19T09:34:06;75941.69;;;-141.64;87.30
47753;BME280;2038;51.728;6.674;2023-11-19T09:36:32;75947.56;;;-141.64;87.13
47753;BME280;2038;51.728;6.674;2023-11-19T09:38:58;75957.31;;;-141.64;87.07
47753;BME280;2038;51.728;6.674;2023-11-19T09:41:27;75939.75;;;-141.64;86.48
47753;BME280;2038;51.728;6.674;2023-11-19T09:43:54;75935.84;;;-141.64;86.63
47753;BME280;2038;51.728;6.674;2023-11-19T09:46:21;75929.97;;;-141.64;86.26
47753;BME280;2038;51.728;6.674;2023-11-19T09:48:52;75941.69;;;-141.64;85.71
47753;BME280;2038;51.728;6.674;2023-11-19T09:51:20;75947.56;;;-141.64;86.01
47753;BME280;2038;51.728;6.674;2023-11-19T09:53:48;75943.66;;;-141.64;85.91
47753;BME280;2038;51.728;6.674;2023-11-19T09:56:15;75955.34;;;-141.64;86.48
47753;BME280;2038;51.728;6.674;2023-11-19T09:58:43;75957.31;;;-141.64;86.57
47753;BME280;2038;51.728;6.674;2023-11-19T10:01:09;75935.84;;;-141.64;86.70
47753;BME280;2038;51.728;6.674;2023-11-19T10:03:39;75933.88;;;-141.64;86.43
47753;BME280;2038;51.728;6.674;2023-11-19T10:06:09;75918.28;;;-141.64;86.49
47753;BME280;2038;51.728;6.674;2023-11-19T10:08:40;75922.16;;;-141.64;86.34
47753;BME280;2038;51.728;6.674;2023-11-19T10:11:08;75935.84;;;-141.64;86.29
47753;BME280;2038;51.728;6.674;2023-11-19T10:13:37;75929.97;;;-141.64;86.17
47753;BME280;2038;51.728;6.674;2023-11-19T10:16:13;75918.28;;;-141.64;86.23
47753;BME280;2038;51.728;6.674;2023-11-19T10:18:47;75931.94;;;-141.64;86.16
47753;BME280;2038;51.728;6.674;2023-11-19T10:21:18;75931.94;;;-141.64;86.41
47753;BME280;2038;51.728;6.674;2023-11-19T10:23:55;75931.94;;;-141.64;85.89
47753;BME280;2038;51.728;6.674;2023-11-19T10:26:28;75918.28;;;-141.64;86.29
47753;BME280;2038;51.728;6.674;2023-11-19T10:28:56;75908.50;;;-141.64;86.46
47753;BME280;2038;51.728;6.674;2023-11-19T10:31:22;75894.84;;;-141.64;86.64
47753;BME280;2038;51.728;6.674;2023-11-19T10:33:51;75890.94;;;-141.64;85.69
47753;BME280;2038;51.728;6.674;2023-11-19T10:36:17;75883.13;;;-141.64;85.43
47753;BME280;2038;51.728;6.674;2023-11-19T10:38:56;75889.00;;;-141.64;85.76
47753;BME280;2038;51.728;6.674;2023-11-19T10:41:30;75890.94;;;-141.64;85.23
47753;BME280;2038;51.728;6.674;2023-11-19T10:44:00;75887.03;;;-141.64;85.58
47753;BME280;2038;51.728;6.674;2023-11-19T10:46:39;75881.19;;;-141.64;85.80
47753;BME280;2038;51.728;6.674;2023-11-19T10:49:09;75871.41;;;-141.64;85.56
47753;BME280;2038;51.728;6.674;2023-11-19T10:51:36;75867.50;;;-141.64;84.91
47753;BME280;2038;51.728;6.674;2023-11-19T10:54:11;75869.47;;;-141.64;84.11
47753;BME280;2038;51.728;6.674;2023-11-19T10:56:45;75867.50;;;-141.64;83.70
47753;BME280;2038;51.728;6.674;2023-11-19T10:59:17;75875.31;;;-141.64;83.54
47753;BME280;2038;51.728;6.674;2023-11-19T11:01:48;75879.22;;;-141.64;83.49
47753;BME280;2038;51.728;6.674;2023-11-19T11:04:26;75883.13;;;-141.64;83.81
47753;BME280;2038;51.728;6.674;2023-11-19T11:06:58;75863.59;;;-141.64;84.48
47753;BME280;2038;51.728;6.674;2023-11-19T11:09:27;75853.84;;;-141.64;83.88
47753;BME280;2038;51.728;6.674;2023-11-19T11:11:57;75848.00;;;-141.64;83.39
47753;BME280;2038;51.728;6.674;2023-11-19T11:14:25;75855.81;;;-141.64;83.89
47753;BME280;2038;51.728;6.674;2023-11-19T11:16:53;75861.66;;;-141.64;83.84
47753;BME280;2038;51.728;6.674;2023-11-19T11:19:22;75849.94;;;-141.64;84.02
47753;BME280;2038;51.728;6.674;2023-11-19T11:21:54;75853.84;;;-141.64;83.50
47753;BME280;2038;51.728;6.674;2023-11-19T11:24:32;75840.19;;;-141.64;83.17
47753;BME280;2038;51.728;6.674;2023-11-19T11:30:28;75859.72;;;-141.64;83.02
47753;BME280;2038;51.728;6.674;2023-11-19T11:36:25;75838.22;;;-141.64;82.34
47753;BME280;2038;51.728;6.674;2023-11-19T11:38:52;75826.53;;;-141.64;82.06
47753;BME280;2038;51.728;6.674;2023-11-19T11:41:23;75791.38;;;-141.64;81.69
47753;BME280;2038;51.728;6.674;2023-11-19T11:43:52;75795.28;;;-141.64;81.57
47753;BME280;2038;51.728;6.674;2023-11-19T11:49:02;75789.44;;;-141.64;80.92
47753;BME280;2038;51.728;6.674;2023-11-19T11:57:02;75803.09;;;-141.64;81.15
47753;BME280;2038;51.728;6.674;2023-11-19T12:02:12;75797.25;;;-141.64;80.66
47753;BME280;2038;51.728;6.674;2023-11-19T12:04:47;75795.28;;;-141.64;80.52
47753;BME280;2038;51.728;6.674;2023-11-19T12:07:22;75789.44;;;-141.64;80.48
47753;BME280;2038;51.728;6.674;2023-11-19T12:10:08;75793.34;;;-141.64;80.22
47753;BME280;2038;51.728;6.674;2023-11-19T12:12:37;75785.53;;;-141.64;80.80
47753;BME280;2038;51.728;6.674;2023-11-19T12:15:07;75799.19;;;-141.64;79.87
47753;BME280;2038;51.728;6.674;2023-11-19T12:17:42;75797.25;;;-141.64;80.45
47753;BME280;2038;51.728;6.674;2023-11-19T12:20:15;75785.53;;;-141.64;80.30
47753;BME280;2038;51.728;6.674;2023-11-19T12:22:43;75783.56;;;-141.64;79.95
47753;BME280;2038;51.728;6.674;2023-11-19T12:25:12;75769.91;;;-141.64;80.03
47753;BME280;2038;51.728;6.674;2023-11-19T12:27:43;75760.16;;;-141.64;79.97
47753;BME280;2038;51.728;6.674;2023-11-19T12:30:11;75744.53;;;-141.64;79.95
47753;BME280;2038;51.728;6.674;2023-11-19T12:32:46;75740.63;;;-141.64;79.57
47753;BME280;2038;51.728;6.674;2023-11-19T12:35:13;75766.00;;;-141.64;79.59
47753;BME280;2038;51.728;6.674;2023-11-19T12:37:46;75769.91;;;-141.64;79.84
47753;BME280;2038;51.728;6.674;2023-11-19T12:40:22;75775.78;;;-141.64;80.08
47753;BME280;2038;51.728;6.674;2023-11-19T12:42:54;75789.44;;;-141.64;79.79
47753;BME280;2038;51.728;6.674;2023-11-19T12:45:21;75791.38;;;-141.64;80.37
47753;BME280;2038;51.728;6.674;2023-11-19T12:47:49;75805.03;;;-141.64;80.59
47753;BME280;2038;51.728;6.674;2023-11-19T12:50:18;75803.09;;;-141.64;81.38
47753;BME280;2038;51.728;6.674;2023-11-19T12:52:56;75805.03;;;-141.64;81.58
47753;BME280;2038;51.728;6.674;2023-11-19T12:55:30;75805.03;;;-141.64;82.03
47753;BME280;2038;51.728;6.674;2023-11-19T12:57:58;75803.09;;;-141.64;81.77
47753;BME280;2038;51.728;6.674;2023-11-19T13:00:26;75808.94;;;-141.64;81.73
47753;BME280;2038;51.728;6.674;2023-11-19T13:02:54;75816.75;;;-141.64;81.44
47753;BME280;2038;51.728;6.674;2023-11-19T13:05:29;75818.72;;;-141.64;81.87
47753;BME280;2038;51.728;6.674;2023-11-19T13:08:04;75818.72;;;-141.64;81.90
47753;BME280;2038;51.728;6.674;2023-11-19T13:10:33;75808.94;;;-141.64;81.83